Bramon, Sweden

4:13 PM CEST on July 28, 2016 (GMT +0200)
Blåmesvägen | | Change Station

Elev -10000 ft 62.41 °N, 17.32 °E | Updated 1 minute ago

Clear
Clear
70.5 °F
Feels Like 74 °F
N
0.6
Wind Variable Wind from NNW
Gusts 3.1 mph

Today
High -- | Low -- °F
--% Chance of Precip.
Yesterday
High -- | Low -- °F
Precip. -- in
Pressure 29.80 in
Visibility -9999.0 miles
Clouds
Heat Index 74 °F
Dew Point 60 °F
Humidity 69%
Rainfall 0.00 in
Snow Depth Not available.
4:03 AM 9:45 PM
Waning Crescent, 32% visible
METAR ESNN 281350Z 14010KT CAVOK 21/15 Q1009
Pressure 29.80 in
Visibility -9999.0 miles
Clouds
Heat Index 74 °F
Dew Point 60 °F
Humidity 69%
Rainfall 0.00 in
Snow Depth Not available.
4:03 AM 9:45 PM
Waning Crescent, 32% visible
METAR ESNN 281350Z 14010KT CAVOK 21/15 Q1009

10-Day Weather Forecast

×

Almanac

Astronomy

Jul. 28, 2016 Rise Set
Actual Time
Civil Twilight
Nautical Twilight
Astronomical Twilight
Moon
Length of Visible Light
Length of Day
Tomorrow will be .
, % of the Moon is Illuminated

Today's Extremes

Country Highs Country Lows

Community

WunderPhotos

Upload Photos

1,928,117 photos uploaded!

WunderBlog® & News

Nearby

Air Quality

  Air Quality AQ Index Pollutant
Not available.

Snow Depth

Station Depth Elevation

Earthquake Activity

City Distance Mag. Time & Date
Minimum magnitude displayed is 2.5.

Coastal Water Temperatures

Place Temperature

Stations

Nearby Weather Stations

Station Location Temp. Windchill Dew Point Humidity Wind Precip. Elev Updated Type